Startpagina
METAR-TAF:

METAR-TAF

Vliegvelden :

Productieplatform

Hoorn-a, Nederland

breedte: 52-55-05N, lengte: 4-09-01E, hoogte: 41 m

Actueel weer

Dit bericht is 36 minuten geleden gemaakt, om 16:55 UTC
Wind 26 kt uit het westen
Temperatuur 5°C
Vochtigheid 75%
Druk 1002 hPa
Zicht 10 km of meer
Verspreide wolken op 1700 ft
Verspreide wolken op 2100 ft
Gebroken wolken op 2500 ft
(lichte) onbekend

METAR: EHQE 261655Z AUTO 26026KT 9999 -UP SCT017 SCT021 BKN025 05/01 Q1002

Tijdstip: 18:31 (17:31 UTC)


TAF: ontbreekt

Waarnemingen en weersverwachtingen van meer dan 4000 vliegvelden (METAR en TAF).

De beschikbare stations zijn de gele en rode punten op de kaart.

Ga met uw muis naar het station om de naam te zien.

Klik dan om waarnemingen en weersverwachtingen te zien.

kaart wijzigen: klik op de groene knoppen met een zwart kruis om in te zoomen, op de groene knop met een streepje om uit te zoomen of op de groene pijlen voor aangrenzende kaarten.


METAR-TAF: